Onweer radar Meer informatie blitzortung!


Regen radar Meer informatie rain snow radar


Apparatuur in gebruik:

Davis VP2

Meteohub

ALIX 1D

Web-Oke


Het weer levert geen direct gevaar op.    Er zijn geen waarschuwingen afgegeven.

METAR rapporten vliegvelden

   
EHAM - Amsterdam/Schiph, Netherlands
Afstand tot: WZW 42 km
Gewijzigd: 24-10-2021 07:55
Helder  
Helder  
   Wind: ZZO 13 km/h
Wind: ZZO 13 km/h
Temperatuur: 5°C
Voelt als: 2°C
Dauwpunt: 4°C
Vochtigheid: 93%
Barometer: 1024 hPa
Zicht: meer dan 10 km
Bewolking: Helder
EHAM 240555Z 15007KT 120V180 CAVOK 05/04 Q1024 NOSIG
EHDL - Deelen Rnlafb, Netherlands
Afstand tot: ZO 49 km
Gewijzigd: 24-10-2021 07:55
Nevel, Helder  
Nevel, Helder  
   Wind: ZO 9.3 km/h
Wind: ZO 9.3 km/h
Temperatuur: 4°C
Voelt als: 2°C
Dauwpunt: 4°C
Vochtigheid: 100%
Barometer: 1025 hPa
Bewolking: Helder
Zicht: 8 km
Bewolking: Helder
EHDL 240555Z AUTO 13005KT 070V170 8000 BR NCD 04/04 Q1025 BLU
EHKD - De Kooy (navy), Netherlands
Afstand tot: NW 72 km
Gewijzigd: 24-10-2021 07:55
Helder  
Helder  
   Wind: Zuiden 14.8 km/h
Wind: Zuiden 14.8 km/h
Temperatuur: 6°C
Voelt als: 3°C
Dauwpunt: 5°C
Vochtigheid: 93%
Barometer: 1023 hPa
Bewolking: Helder
Zicht: meer dan 10 km
Bewolking: Helder
EHKD 240555Z AUTO 17008KT 9999 NCD 06/05 Q1023 BLU NOSIG
EHRD - Rotterdam Airpor, Netherlands
Afstand tot: ZW 80 km
Gewijzigd: 24-10-2021 07:55
Helder  
Helder  
   Wind: ZZO 14.8 km/h
Wind: ZZO 14.8 km/h
Temperatuur: 7°C
Voelt als: 4°C
Dauwpunt: 5°C
Vochtigheid: 87%
Barometer: 1023 hPa
Bewolking: Helder
Zicht: meer dan 10 km
Bewolking: Helder
EHRD 240555Z AUTO 16008KT 090V180 9999 NCD 07/05 Q1023 NOSIG
EHVK - Volkel Rnlafb, Netherlands
Afstand tot: ZZO 87 km
Gewijzigd: 24-10-2021 08:06
Nevel, Helder  
Nevel, Helder  
   Wind: Oosten 5.6 km/h
Wind: Oosten 5.6 km/h
Temperatuur: 2°C
Voelt als: 1°C
Dauwpunt: 2°C
Vochtigheid: 100%
Barometer: 1025 hPa
Bewolking: Helder
Zicht: 8 km
Bewolking: Helder
EHVK 240606Z AUTO 08003KT 060V180 8000 BR NCD 02/02 Q1025 BLU
EHLW - Leeuwarden Rnlaf, Netherlands
Afstand tot: NNO 95 km
Gewijzigd: 24-10-2021 08:07
Nevel, Helder  
Nevel, Helder  
   Wind: ZZO 13 km/h
Wind: ZZO 13 km/h
Temperatuur: 5°C
Voelt als: 2°C
Dauwpunt: 4°C
Vochtigheid: 93%
Barometer: 1024 hPa
Bewolking: Helder
Zicht: 8 km
Bewolking: Helder
EHLW 240607Z AUTO 16007KT 8000 BR NCD 05/04 Q1024 BLU

Script ontwikkeld door  Saratoga-weather.org Aangepast voor de template door  Weerstation Leuven

U vindt ons ook hier:

Het Weer Aktueel

UK Metoffice

European Weather Network

Weather Underground

Benelux Weer Netwerk

AWEKAS